sensor_id;sensor_type;location;lat;lon;timestamp;P1;durP1;ratioP1;P2;durP2;ratioP2
12869;SDS011;6503;48.572;13.460;2023-03-17T00:01:38;7.97;;;4.07;;
12869;SDS011;6503;48.572;13.460;2023-03-17T00:04:08;5.70;;;3.75;;
12869;SDS011;6503;48.572;13.460;2023-03-17T00:06:38;10.68;;;5.78;;
12869;SDS011;6503;48.572;13.460;2023-03-17T00:09:06;9.95;;;3.80;;
12869;SDS011;6503;48.572;13.460;2023-03-17T00:11:38;6.80;;;3.80;;
12869;SDS011;6503;48.572;13.460;2023-03-17T00:14:06;8.00;;;3.85;;
12869;SDS011;6503;48.572;13.460;2023-03-17T00:16:35;6.75;;;4.18;;
12869;SDS011;6503;48.572;13.460;2023-03-17T00:19:04;7.05;;;4.60;;
12869;SDS011;6503;48.572;13.460;2023-03-17T00:21:33;5.50;;;3.63;;
12869;SDS011;6503;48.572;13.460;2023-03-17T00:24:00;7.45;;;3.78;;
12869;SDS011;6503;48.572;13.460;2023-03-17T00:26:28;6.82;;;3.95;;
12869;SDS011;6503;48.572;13.460;2023-03-17T00:28:56;5.88;;;3.28;;
12869;SDS011;6503;48.572;13.460;2023-03-17T00:31:24;7.43;;;3.78;;
12869;SDS011;6503;48.572;13.460;2023-03-17T00:33:53;7.03;;;3.35;;
12869;SDS011;6503;48.572;13.460;2023-03-17T00:36:21;6.57;;;3.22;;
12869;SDS011;6503;48.572;13.460;2023-03-17T00:38:53;5.97;;;3.13;;
12869;SDS011;6503;48.572;13.460;2023-03-17T00:41:21;7.67;;;3.27;;
12869;SDS011;6503;48.572;13.460;2023-03-17T00:43:48;5.35;;;3.35;;
12869;SDS011;6503;48.572;13.460;2023-03-17T00:46:17;5.35;;;3.42;;
12869;SDS011;6503;48.572;13.460;2023-03-17T00:48:47;4.22;;;2.53;;
12869;SDS011;6503;48.572;13.460;2023-03-17T00:51:16;4.93;;;3.17;;
12869;SDS011;6503;48.572;13.460;2023-03-17T00:53:43;8.90;;;3.47;;
12869;SDS011;6503;48.572;13.460;2023-03-17T00:56:13;6.22;;;3.65;;
12869;SDS011;6503;48.572;13.460;2023-03-17T00:58:42;5.40;;;3.35;;
12869;SDS011;6503;48.572;13.460;2023-03-17T01:01:10;5.53;;;3.60;;
12869;SDS011;6503;48.572;13.460;2023-03-17T01:03:37;5.38;;;3.25;;
12869;SDS011;6503;48.572;13.460;2023-03-17T01:06:06;7.13;;;3.40;;
12869;SDS011;6503;48.572;13.460;2023-03-17T01:11:03;8.73;;;3.22;;
12869;SDS011;6503;48.572;13.460;2023-03-17T01:13:32;6.45;;;3.60;;
12869;SDS011;6503;48.572;13.460;2023-03-17T01:15:59;5.32;;;3.33;;
12869;SDS011;6503;48.572;13.460;2023-03-17T01:18:26;3.83;;;2.80;;
12869;SDS011;6503;48.572;13.460;2023-03-17T01:20:53;4.38;;;2.92;;
12869;SDS011;6503;48.572;13.460;2023-03-17T01:23:20;5.50;;;3.00;;
12869;SDS011;6503;48.572;13.460;2023-03-17T01:25:50;8.05;;;3.53;;
12869;SDS011;6503;48.572;13.460;2023-03-17T01:28:18;4.68;;;2.83;;
12869;SDS011;6503;48.572;13.460;2023-03-17T01:30:47;4.25;;;3.10;;
12869;SDS011;6503;48.572;13.460;2023-03-17T01:33:15;4.95;;;3.03;;
12869;SDS011;6503;48.572;13.460;2023-03-17T01:35:42;4.60;;;3.05;;
12869;SDS011;6503;48.572;13.460;2023-03-17T01:38:11;5.13;;;3.08;;
12869;SDS011;6503;48.572;13.460;2023-03-17T01:40:41;5.32;;;3.03;;
12869;SDS011;6503;48.572;13.460;2023-03-17T01:43:17;6.00;;;2.80;;
12869;SDS011;6503;48.572;13.460;2023-03-17T01:48:43;4.88;;;3.00;;
12869;SDS011;6503;48.572;13.460;2023-03-17T01:51:14;5.57;;;2.65;;
12869;SDS011;6503;48.572;13.460;2023-03-17T01:53:47;5.57;;;3.00;;
12869;SDS011;6503;48.572;13.460;2023-03-17T01:56:16;5.03;;;2.60;;
12869;SDS011;6503;48.572;13.460;2023-03-17T01:58:45;5.50;;;2.80;;
12869;SDS011;6503;48.572;13.460;2023-03-17T02:01:20;4.75;;;2.78;;
12869;SDS011;6503;48.572;13.460;2023-03-17T02:03:52;4.75;;;2.90;;
12869;SDS011;6503;48.572;13.460;2023-03-17T02:06:20;4.35;;;2.78;;
12869;SDS011;6503;48.572;13.460;2023-03-17T02:08:48;4.15;;;2.63;;
12869;SDS011;6503;48.572;13.460;2023-03-17T02:11:16;4.55;;;2.95;;
12869;SDS011;6503;48.572;13.460;2023-03-17T02:13:43;9.20;;;3.92;;
12869;SDS011;6503;48.572;13.460;2023-03-17T02:16:12;3.95;;;3.20;;
12869;SDS011;6503;48.572;13.460;2023-03-17T02:21:26;6.10;;;3.13;;
12869;SDS011;6503;48.572;13.460;2023-03-17T02:23:56;3.75;;;2.65;;
12869;SDS011;6503;48.572;13.460;2023-03-17T02:26:25;4.70;;;2.88;;
12869;SDS011;6503;48.572;13.460;2023-03-17T02:28:58;5.03;;;2.63;;
12869;SDS011;6503;48.572;13.460;2023-03-17T02:31:26;4.30;;;2.80;;
12869;SDS011;6503;48.572;13.460;2023-03-17T02:33:54;5.88;;;3.13;;
12869;SDS011;6503;48.572;13.460;2023-03-17T02:36:21;4.40;;;2.92;;
12869;SDS011;6503;48.572;13.460;2023-03-17T02:38:54;5.60;;;2.83;;
12869;SDS011;6503;48.572;13.460;2023-03-17T02:41:22;5.00;;;3.17;;
12869;SDS011;6503;48.572;13.460;2023-03-17T02:43:49;6.30;;;2.95;;
12869;SDS011;6503;48.572;13.460;2023-03-17T02:46:18;5.05;;;2.83;;
12869;SDS011;6503;48.572;13.460;2023-03-17T02:48:45;4.50;;;2.78;;
12869;SDS011;6503;48.572;13.460;2023-03-17T02:51:12;4.40;;;2.88;;
12869;SDS011;6503;48.572;13.460;2023-03-17T02:53:40;7.72;;;2.95;;
12869;SDS011;6503;48.572;13.460;2023-03-17T02:56:09;4.32;;;3.05;;
12869;SDS011;6503;48.572;13.460;2023-03-17T02:58:36;4.38;;;2.40;;
12869;SDS011;6503;48.572;13.460;2023-03-17T03:01:03;5.55;;;2.90;;
12869;SDS011;6503;48.572;13.460;2023-03-17T03:03:33;5.68;;;3.75;;
12869;SDS011;6503;48.572;13.460;2023-03-17T03:06:00;5.07;;;3.05;;
12869;SDS011;6503;48.572;13.460;2023-03-17T03:08:27;3.75;;;2.67;;
12869;SDS011;6503;48.572;13.460;2023-03-17T03:10:54;4.60;;;3.28;;
12869;SDS011;6503;48.572;13.460;2023-03-17T03:13:27;5.50;;;3.17;;
12869;SDS011;6503;48.572;13.460;2023-03-17T03:15:55;4.88;;;2.97;;
12869;SDS011;6503;48.572;13.460;2023-03-17T03:18:22;4.40;;;3.03;;
12869;SDS011;6503;48.572;13.460;2023-03-17T03:20:50;5.30;;;2.90;;
12869;SDS011;6503;48.572;13.460;2023-03-17T03:23:17;5.32;;;2.97;;
12869;SDS011;6503;48.572;13.460;2023-03-17T03:25:44;6.35;;;2.88;;
12869;SDS011;6503;48.572;13.460;2023-03-17T03:28:11;5.60;;;2.92;;
12869;SDS011;6503;48.572;13.460;2023-03-17T03:30:40;5.60;;;3.00;;
12869;SDS011;6503;48.572;13.460;2023-03-17T03:33:08;6.95;;;3.33;;
12869;SDS011;6503;48.572;13.460;2023-03-17T03:35:36;4.35;;;2.67;;
12869;SDS011;6503;48.572;13.460;2023-03-17T03:38:04;5.95;;;2.92;;
12869;SDS011;6503;48.572;13.460;2023-03-17T03:40:32;7.30;;;3.35;;
12869;SDS011;6503;48.572;13.460;2023-03-17T03:42:59;8.90;;;3.95;;
12869;SDS011;6503;48.572;13.460;2023-03-17T03:45:28;15.35;;;6.40;;
12869;SDS011;6503;48.572;13.460;2023-03-17T03:47:57;22.58;;;8.10;;
12869;SDS011;6503;48.572;13.460;2023-03-17T03:50:25;24.42;;;8.43;;
12869;SDS011;6503;48.572;13.460;2023-03-17T03:52:52;27.00;;;10.98;;
12869;SDS011;6503;48.572;13.460;2023-03-17T03:55:19;33.97;;;12.05;;
12869;SDS011;6503;48.572;13.460;2023-03-17T03:57:46;43.88;;;14.70;;
12869;SDS011;6503;48.572;13.460;2023-03-17T04:00:14;39.47;;;12.52;;
12869;SDS011;6503;48.572;13.460;2023-03-17T04:02:42;39.08;;;14.27;;
12869;SDS011;6503;48.572;13.460;2023-03-17T04:05:12;42.85;;;13.05;;
12869;SDS011;6503;48.572;13.460;2023-03-17T04:07:40;40.03;;;12.07;;
12869;SDS011;6503;48.572;13.460;2023-03-17T04:10:08;38.33;;;13.95;;
12869;SDS011;6503;48.572;13.460;2023-03-17T04:12:36;40.47;;;13.27;;
12869;SDS011;6503;48.572;13.460;2023-03-17T04:15:04;39.72;;;13.18;;
12869;SDS011;6503;48.572;13.460;2023-03-17T04:17:33;34.60;;;12.43;;
12869;SDS011;6503;48.572;13.460;2023-03-17T04:20:01;38.50;;;12.32;;
12869;SDS011;6503;48.572;13.460;2023-03-17T04:22:30;33.83;;;11.38;;
12869;SDS011;6503;48.572;13.460;2023-03-17T04:24:57;35.08;;;11.50;;
12869;SDS011;6503;48.572;13.460;2023-03-17T04:27:24;31.38;;;11.18;;
12869;SDS011;6503;48.572;13.460;2023-03-17T04:29:51;23.40;;;8.60;;
12869;SDS011;6503;48.572;13.460;2023-03-17T04:32:18;27.38;;;9.48;;
12869;SDS011;6503;48.572;13.460;2023-03-17T04:34:46;19.10;;;7.35;;
12869;SDS011;6503;48.572;13.460;2023-03-17T04:37:13;8.90;;;4.38;;
12869;SDS011;6503;48.572;13.460;2023-03-17T04:39:42;6.57;;;3.53;;
12869;SDS011;6503;48.572;13.460;2023-03-17T04:42:09;6.80;;;3.83;;
12869;SDS011;6503;48.572;13.460;2023-03-17T04:44:37;6.22;;;3.30;;
12869;SDS011;6503;48.572;13.460;2023-03-17T04:47:04;10.35;;;4.65;;
12869;SDS011;6503;48.572;13.460;2023-03-17T04:49:31;13.80;;;5.47;;
12869;SDS011;6503;48.572;13.460;2023-03-17T04:51:59;10.85;;;4.22;;
12869;SDS011;6503;48.572;13.460;2023-03-17T04:54:26;13.10;;;4.65;;
12869;SDS011;6503;48.572;13.460;2023-03-17T04:56:55;6.95;;;4.47;;
12869;SDS011;6503;48.572;13.460;2023-03-17T04:59:22;8.35;;;4.60;;
12869;SDS011;6503;48.572;13.460;2023-03-17T05:01:51;8.25;;;4.38;;
12869;SDS011;6503;48.572;13.460;2023-03-17T05:04:18;11.73;;;4.55;;
12869;SDS011;6503;48.572;13.460;2023-03-17T05:06:45;8.13;;;4.70;;
12869;SDS011;6503;48.572;13.460;2023-03-17T05:09:13;8.15;;;4.32;;
12869;SDS011;6503;48.572;13.460;2023-03-17T05:11:43;9.88;;;4.10;;
12869;SDS011;6503;48.572;13.460;2023-03-17T05:14:12;9.10;;;4.70;;
12869;SDS011;6503;48.572;13.460;2023-03-17T05:16:40;8.02;;;4.53;;
12869;SDS011;6503;48.572;13.460;2023-03-17T05:19:07;8.80;;;4.22;;
12869;SDS011;6503;48.572;13.460;2023-03-17T05:21:37;6.75;;;3.50;;
12869;SDS011;6503;48.572;13.460;2023-03-17T05:24:04;5.55;;;3.88;;
12869;SDS011;6503;48.572;13.460;2023-03-17T05:26:33;8.52;;;3.42;;
12869;SDS011;6503;48.572;13.460;2023-03-17T05:29:01;9.82;;;4.47;;
12869;SDS011;6503;48.572;13.460;2023-03-17T05:31:30;10.95;;;5.05;;
12869;SDS011;6503;48.572;13.460;2023-03-17T05:33:57;13.25;;;5.55;;
12869;SDS011;6503;48.572;13.460;2023-03-17T05:36:27;8.40;;;4.53;;
12869;SDS011;6503;48.572;13.460;2023-03-17T05:38:54;10.73;;;5.15;;
12869;SDS011;6503;48.572;13.460;2023-03-17T05:41:21;12.63;;;4.35;;
12869;SDS011;6503;48.572;13.460;2023-03-17T05:43:48;8.68;;;4.78;;
12869;SDS011;6503;48.572;13.460;2023-03-17T05:46:16;7.50;;;4.18;;
12869;SDS011;6503;48.572;13.460;2023-03-17T05:48:47;8.45;;;5.22;;
12869;SDS011;6503;48.572;13.460;2023-03-17T05:51:16;9.15;;;5.78;;
12869;SDS011;6503;48.572;13.460;2023-03-17T05:53:44;11.20;;;4.95;;
12869;SDS011;6503;48.572;13.460;2023-03-17T05:56:11;8.65;;;4.75;;
12869;SDS011;6503;48.572;13.460;2023-03-17T05:58:38;8.95;;;4.90;;
12869;SDS011;6503;48.572;13.460;2023-03-17T06:01:10;6.82;;;4.10;;
12869;SDS011;6503;48.572;13.460;2023-03-17T06:03:56;8.40;;;4.20;;
12869;SDS011;6503;48.572;13.460;2023-03-17T06:06:25;8.60;;;4.68;;
12869;SDS011;6503;48.572;13.460;2023-03-17T06:08:52;7.18;;;4.25;;
12869;SDS011;6503;48.572;13.460;2023-03-17T06:11:19;8.63;;;4.60;;
12869;SDS011;6503;48.572;13.460;2023-03-17T06:13:47;9.90;;;4.80;;
12869;SDS011;6503;48.572;13.460;2023-03-17T06:16:15;8.77;;;4.43;;
12869;SDS011;6503;48.572;13.460;2023-03-17T06:18:59;9.48;;;4.65;;
12869;SDS011;6503;48.572;13.460;2023-03-17T06:21:31;9.38;;;4.72;;
12869;SDS011;6503;48.572;13.460;2023-03-17T06:24:01;9.93;;;4.53;;
12869;SDS011;6503;48.572;13.460;2023-03-17T06:26:32;7.85;;;4.85;;
12869;SDS011;6503;48.572;13.460;2023-03-17T06:29:01;6.95;;;4.57;;
12869;SDS011;6503;48.572;13.460;2023-03-17T06:31:33;8.82;;;4.57;;
12869;SDS011;6503;48.572;13.460;2023-03-17T06:36:48;7.13;;;4.65;;
12869;SDS011;6503;48.572;13.460;2023-03-17T06:39:16;7.25;;;4.13;;
12869;SDS011;6503;48.572;13.460;2023-03-17T06:41:43;10.60;;;4.45;;
12869;SDS011;6503;48.572;13.460;2023-03-17T06:44:15;9.60;;;4.50;;
12869;SDS011;6503;48.572;13.460;2023-03-17T06:46:50;8.10;;;4.00;;
12869;SDS011;6503;48.572;13.460;2023-03-17T06:49:22;8.02;;;4.28;;
12869;SDS011;6503;48.572;13.460;2023-03-17T06:51:51;7.00;;;4.32;;
12869;SDS011;6503;48.572;13.460;2023-03-17T06:54:20;11.20;;;3.67;;
12869;SDS011;6503;48.572;13.460;2023-03-17T06:56:49;8.57;;;3.72;;
12869;SDS011;6503;48.572;13.460;2023-03-17T06:59:20;5.03;;;3.92;;
12869;SDS011;6503;48.572;13.460;2023-03-17T07:01:52;7.35;;;4.10;;
12869;SDS011;6503;48.572;13.460;2023-03-17T07:04:23;7.15;;;4.35;;
12869;SDS011;6503;48.572;13.460;2023-03-17T07:06:51;8.15;;;4.05;;
12869;SDS011;6503;48.572;13.460;2023-03-17T07:09:20;8.10;;;3.60;;
12869;SDS011;6503;48.572;13.460;2023-03-17T07:11:54;7.50;;;4.28;;
12869;SDS011;6503;48.572;13.460;2023-03-17T07:14:30;9.95;;;4.90;;
12869;SDS011;6503;48.572;13.460;2023-03-17T07:17:14;7.13;;;3.58;;
12869;SDS011;6503;48.572;13.460;2023-03-17T07:19:45;9.63;;;4.28;;
12869;SDS011;6503;48.572;13.460;2023-03-17T07:22:15;10.07;;;4.18;;
12869;SDS011;6503;48.572;13.460;2023-03-17T07:24:49;12.20;;;4.13;;
12869;SDS011;6503;48.572;13.460;2023-03-17T07:27:17;8.57;;;4.20;;
12869;SDS011;6503;48.572;13.460;2023-03-17T07:29:49;7.80;;;4.45;;
12869;SDS011;6503;48.572;13.460;2023-03-17T07:32:19;8.73;;;4.97;;
12869;SDS011;6503;48.572;13.460;2023-03-17T07:34:49;11.68;;;6.07;;
12869;SDS011;6503;48.572;13.460;2023-03-17T07:37:19;12.25;;;4.72;;
12869;SDS011;6503;48.572;13.460;2023-03-17T07:39:47;7.45;;;4.63;;
12869;SDS011;6503;48.572;13.460;2023-03-17T07:42:16;10.82;;;6.10;;
12869;SDS011;6503;48.572;13.460;2023-03-17T07:44:44;7.90;;;5.05;;
12869;SDS011;6503;48.572;13.460;2023-03-17T07:47:12;10.38;;;4.68;;
12869;SDS011;6503;48.572;13.460;2023-03-17T07:49:42;9.05;;;4.75;;
12869;SDS011;6503;48.572;13.460;2023-03-17T07:52:20;8.75;;;4.80;;
12869;SDS011;6503;48.572;13.460;2023-03-17T07:54:54;10.25;;;5.03;;
12869;SDS011;6503;48.572;13.460;2023-03-17T07:57:22;7.38;;;4.93;;
12869;SDS011;6503;48.572;13.460;2023-03-17T07:59:51;9.38;;;4.65;;
12869;SDS011;6503;48.572;13.460;2023-03-17T08:02:20;8.68;;;4.85;;
12869;SDS011;6503;48.572;13.460;2023-03-17T08:04:54;6.97;;;4.28;;
12869;SDS011;6503;48.572;13.460;2023-03-17T08:07:25;8.52;;;5.20;;
12869;SDS011;6503;48.572;13.460;2023-03-17T08:09:59;7.95;;;5.05;;
12869;SDS011;6503;48.572;13.460;2023-03-17T08:12:30;10.55;;;5.28;;
12869;SDS011;6503;48.572;13.460;2023-03-17T08:14:58;9.45;;;4.80;;
12869;SDS011;6503;48.572;13.460;2023-03-17T08:17:33;7.88;;;4.40;;
12869;SDS011;6503;48.572;13.460;2023-03-17T08:20:06;15.65;;;4.78;;
12869;SDS011;6503;48.572;13.460;2023-03-17T08:22:35;8.02;;;4.68;;
12869;SDS011;6503;48.572;13.460;2023-03-17T08:25:14;10.23;;;5.03;;
12869;SDS011;6503;48.572;13.460;2023-03-17T08:27:43;12.70;;;5.20;;
12869;SDS011;6503;48.572;13.460;2023-03-17T08:30:13;7.78;;;4.38;;
12869;SDS011;6503;48.572;13.460;2023-03-17T08:32:50;6.90;;;3.88;;
12869;SDS011;6503;48.572;13.460;2023-03-17T08:35:18;6.75;;;4.03;;
12869;SDS011;6503;48.572;13.460;2023-03-17T08:37:51;7.65;;;3.92;;
12869;SDS011;6503;48.572;13.460;2023-03-17T08:40:20;5.22;;;3.00;;
12869;SDS011;6503;48.572;13.460;2023-03-17T08:42:51;5.60;;;3.42;;
12869;SDS011;6503;48.572;13.460;2023-03-17T08:45:20;4.13;;;2.65;;
12869;SDS011;6503;48.572;13.460;2023-03-17T08:47:54;3.83;;;2.30;;
12869;SDS011;6503;48.572;13.460;2023-03-17T08:50:23;3.33;;;2.25;;
12869;SDS011;6503;48.572;13.460;2023-03-17T08:52:58;4.18;;;2.53;;
12869;SDS011;6503;48.572;13.460;2023-03-17T08:55:28;5.57;;;2.80;;
12869;SDS011;6503;48.572;13.460;2023-03-17T08:58:04;5.25;;;2.80;;
12869;SDS011;6503;48.572;13.460;2023-03-17T09:00:37;5.38;;;3.10;;
12869;SDS011;6503;48.572;13.460;2023-03-17T09:03:06;8.32;;;2.88;;
12869;SDS011;6503;48.572;13.460;2023-03-17T09:05:36;4.82;;;2.83;;
12869;SDS011;6503;48.572;13.460;2023-03-17T09:25:48;7.90;;;3.85;;
12869;SDS011;6503;48.572;13.460;2023-03-17T09:28:21;5.32;;;2.38;;
12869;SDS011;6503;48.572;13.460;2023-03-17T09:30:49;4.85;;;2.42;;
12869;SDS011;6503;48.572;13.460;2023-03-17T09:33:17;5.47;;;2.35;;
12869;SDS011;6503;48.572;13.460;2023-03-17T09:35:46;3.70;;;1.90;;
12869;SDS011;6503;48.572;13.460;2023-03-17T09:38:15;5.97;;;2.13;;
